sensor_id;sensor_type;location;lat;lon;timestamp;pressure;altitude;pressure_sealevel;temperature;humidity
64872;BME280;51351;51.450;6.614;2023-08-06T00:00:24;100291.59;;;16.02;81.15
64872;BME280;51351;51.450;6.614;2023-08-06T00:02:50;100287.06;;;15.96;81.15
64872;BME280;51351;51.450;6.614;2023-08-06T00:05:16;100285.44;;;15.95;81.01
64872;BME280;51351;51.450;6.614;2023-08-06T00:07:48;100285.81;;;15.92;81.62
64872;BME280;51351;51.450;6.614;2023-08-06T00:10:14;100285.97;;;15.90;82.10
64872;BME280;51351;51.450;6.614;2023-08-06T00:12:40;100271.19;;;15.89;81.85
64872;BME280;51351;51.450;6.614;2023-08-06T00:15:06;100270.34;;;15.89;81.86
64872;BME280;51351;51.450;6.614;2023-08-06T00:17:34;100264.06;;;15.90;81.66
64872;BME280;51351;51.450;6.614;2023-08-06T00:20:01;100261.63;;;15.88;81.82
64872;BME280;51351;51.450;6.614;2023-08-06T00:22:37;100261.63;;;15.88;81.69
64872;BME280;51351;51.450;6.614;2023-08-06T00:25:04;100252.75;;;15.89;81.95
64872;BME280;51351;51.450;6.614;2023-08-06T00:27:31;100254.38;;;15.90;81.88
64872;BME280;51351;51.450;6.614;2023-08-06T00:29:58;100252.38;;;15.92;82.10
64872;BME280;51351;51.450;6.614;2023-08-06T00:32:24;100255.81;;;15.93;81.91
64872;BME280;51351;51.450;6.614;2023-08-06T00:34:50;100254.81;;;15.94;82.20
64872;BME280;51351;51.450;6.614;2023-08-06T00:37:16;100247.72;;;15.94;81.98
64872;BME280;51351;51.450;6.614;2023-08-06T00:39:43;100255.44;;;15.96;82.21
64872;BME280;51351;51.450;6.614;2023-08-06T00:42:10;100247.53;;;15.96;82.08
64872;BME280;51351;51.450;6.614;2023-08-06T00:44:37;100245.94;;;15.95;82.08
64872;BME280;51351;51.450;6.614;2023-08-06T00:47:04;100248.56;;;15.95;82.30
64872;BME280;51351;51.450;6.614;2023-08-06T00:49:30;100246.72;;;15.95;82.16
64872;BME280;51351;51.450;6.614;2023-08-06T00:51:58;100245.75;;;15.96;82.27
64872;BME280;51351;51.450;6.614;2023-08-06T00:54:25;100252.63;;;15.97;81.86
64872;BME280;51351;51.450;6.614;2023-08-06T00:56:52;100240.66;;;15.95;82.23
64872;BME280;51351;51.450;6.614;2023-08-06T00:59:19;100253.81;;;15.95;81.98
64872;BME280;51351;51.450;6.614;2023-08-06T01:01:45;100245.28;;;15.93;81.92
64872;BME280;51351;51.450;6.614;2023-08-06T01:04:12;100248.75;;;15.93;82.28
64872;BME280;51351;51.450;6.614;2023-08-06T01:06:48;100237.38;;;15.93;82.45
64872;BME280;51351;51.450;6.614;2023-08-06T01:15:11;100237.13;;;15.88;82.35
64872;BME280;51351;51.450;6.614;2023-08-06T01:17:37;100235.47;;;15.87;82.35
64872;BME280;51351;51.450;6.614;2023-08-06T01:20:04;100223.94;;;15.88;82.56
64872;BME280;51351;51.450;6.614;2023-08-06T01:22:31;100230.66;;;15.90;82.07
64872;BME280;51351;51.450;6.614;2023-08-06T01:24:57;100232.47;;;15.90;82.09
64872;BME280;51351;51.450;6.614;2023-08-06T01:30:09;100232.28;;;15.91;81.84
64872;BME280;51351;51.450;6.614;2023-08-06T01:32:39;100241.84;;;15.92;81.71
64872;BME280;51351;51.450;6.614;2023-08-06T01:35:10;100233.13;;;15.92;81.70
64872;BME280;51351;51.450;6.614;2023-08-06T01:37:37;100237.38;;;15.93;82.03
64872;BME280;51351;51.450;6.614;2023-08-06T01:40:11;100234.13;;;15.91;81.43
64872;BME280;51351;51.450;6.614;2023-08-06T01:42:38;100229.28;;;15.94;81.80
64872;BME280;51351;51.450;6.614;2023-08-06T01:45:06;100226.66;;;15.94;81.86
64872;BME280;51351;51.450;6.614;2023-08-06T01:47:32;100232.94;;;15.93;81.51
64872;BME280;51351;51.450;6.614;2023-08-06T01:49:58;100230.13;;;15.95;81.82
64872;BME280;51351;51.450;6.614;2023-08-06T01:52:24;100228.28;;;15.95;82.00
64872;BME280;51351;51.450;6.614;2023-08-06T01:54:50;100231.31;;;15.92;82.24
64872;BME280;51351;51.450;6.614;2023-08-06T01:57:17;100228.03;;;15.90;81.70
64872;BME280;51351;51.450;6.614;2023-08-06T01:59:43;100220.84;;;15.84;81.98
64872;BME280;51351;51.450;6.614;2023-08-06T02:02:09;100226.31;;;15.83;81.97
64872;BME280;51351;51.450;6.614;2023-08-06T02:04:35;100219.94;;;15.77;82.10
64872;BME280;51351;51.450;6.614;2023-08-06T02:07:01;100221.50;;;15.72;82.43
64872;BME280;51351;51.450;6.614;2023-08-06T02:09:28;100212.16;;;15.69;82.62
64872;BME280;51351;51.450;6.614;2023-08-06T02:11:54;100215.16;;;15.66;82.62
64872;BME280;51351;51.450;6.614;2023-08-06T02:14:20;100215.34;;;15.65;82.95
64872;BME280;51351;51.450;6.614;2023-08-06T02:16:46;100211.44;;;15.61;82.98
64872;BME280;51351;51.450;6.614;2023-08-06T02:19:12;100210.78;;;15.59;83.02
64872;BME280;51351;51.450;6.614;2023-08-06T02:21:38;100214.44;;;15.58;83.17
64872;BME280;51351;51.450;6.614;2023-08-06T02:24:04;100213.44;;;15.59;83.14
64872;BME280;51351;51.450;6.614;2023-08-06T02:26:30;100209.97;;;15.58;83.25
64872;BME280;51351;51.450;6.614;2023-08-06T02:28:56;100208.16;;;15.59;83.22
64872;BME280;51351;51.450;6.614;2023-08-06T02:31:22;100209.00;;;15.59;83.25
64872;BME280;51351;51.450;6.614;2023-08-06T02:33:48;100209.00;;;15.59;83.44
64872;BME280;51351;51.450;6.614;2023-08-06T02:36:14;100206.16;;;15.61;83.38
64872;BME280;51351;51.450;6.614;2023-08-06T02:38:40;100206.78;;;15.63;83.25
64872;BME280;51351;51.450;6.614;2023-08-06T02:41:06;100198.88;;;15.63;83.22
64872;BME280;51351;51.450;6.614;2023-08-06T02:43:32;100202.34;;;15.63;83.38
64872;BME280;51351;51.450;6.614;2023-08-06T02:46:01;100195.44;;;15.62;83.45
64872;BME280;51351;51.450;6.614;2023-08-06T02:48:28;100193.19;;;15.59;83.40
64872;BME280;51351;51.450;6.614;2023-08-06T02:50:57;100184.81;;;15.56;83.18
64872;BME280;51351;51.450;6.614;2023-08-06T02:53:25;100194.53;;;15.55;83.59
64872;BME280;51351;51.450;6.614;2023-08-06T02:55:51;100188.47;;;15.55;83.67
64872;BME280;51351;51.450;6.614;2023-08-06T02:58:22;100186.19;;;15.52;83.67
64872;BME280;51351;51.450;6.614;2023-08-06T03:01:05;100182.91;;;15.50;84.15
64872;BME280;51351;51.450;6.614;2023-08-06T03:03:39;100178.47;;;15.50;83.81
64872;BME280;51351;51.450;6.614;2023-08-06T03:06:07;100175.66;;;15.52;84.00
64872;BME280;51351;51.450;6.614;2023-08-06T03:08:46;100177.28;;;15.53;83.85
64872;BME280;51351;51.450;6.614;2023-08-06T03:11:13;100177.94;;;15.55;83.66
64872;BME280;51351;51.450;6.614;2023-08-06T03:13:39;100178.91;;;15.54;83.78
64872;BME280;51351;51.450;6.614;2023-08-06T03:16:05;100168.56;;;15.52;83.84
64872;BME280;51351;51.450;6.614;2023-08-06T03:18:31;100164.94;;;15.53;84.26
64872;BME280;51351;51.450;6.614;2023-08-06T03:21:02;100169.38;;;15.53;84.32
64872;BME280;51351;51.450;6.614;2023-08-06T03:23:30;100169.38;;;15.53;84.50
64872;BME280;51351;51.450;6.614;2023-08-06T03:26:01;100173.81;;;15.52;84.29
64872;BME280;51351;51.450;6.614;2023-08-06T03:28:28;100171.00;;;15.54;84.34
64872;BME280;51351;51.450;6.614;2023-08-06T03:31:02;100169.38;;;15.53;84.32
64872;BME280;51351;51.450;6.614;2023-08-06T03:33:32;100170.03;;;15.55;84.51
64872;BME280;51351;51.450;6.614;2023-08-06T03:35:59;100172.84;;;15.53;84.38
64872;BME280;51351;51.450;6.614;2023-08-06T03:38:26;100166.13;;;15.51;84.42
64872;BME280;51351;51.450;6.614;2023-08-06T03:40:53;100162.69;;;15.50;84.54
64872;BME280;51351;51.450;6.614;2023-08-06T03:43:19;100160.06;;;15.50;84.16
64872;BME280;51351;51.450;6.614;2023-08-06T03:45:45;100162.03;;;15.48;84.83
64872;BME280;51351;51.450;6.614;2023-08-06T03:48:12;100165.50;;;15.49;84.64
64872;BME280;51351;51.450;6.614;2023-08-06T03:50:38;100164.50;;;15.50;84.38
64872;BME280;51351;51.450;6.614;2023-08-06T03:53:05;100162.69;;;15.50;84.28
64872;BME280;51351;51.450;6.614;2023-08-06T03:55:31;100160.06;;;15.50;84.27
64872;BME280;51351;51.450;6.614;2023-08-06T03:57:57;100158.22;;;15.51;84.25
64872;BME280;51351;51.450;6.614;2023-08-06T04:00:23;100161.66;;;15.51;84.59
64872;BME280;51351;51.450;6.614;2023-08-06T04:02:53;100170.41;;;15.52;84.63
64872;BME280;51351;51.450;6.614;2023-08-06T04:05:19;100161.84;;;15.50;84.57
64872;BME280;51351;51.450;6.614;2023-08-06T04:07:45;100169.38;;;15.53;84.59
64872;BME280;51351;51.450;6.614;2023-08-06T04:10:11;100156.59;;;15.50;84.64
64872;BME280;51351;51.450;6.614;2023-08-06T04:12:37;100164.50;;;15.50;84.56
64872;BME280;51351;51.450;6.614;2023-08-06T04:15:05;100163.69;;;15.49;84.79
64872;BME280;51351;51.450;6.614;2023-08-06T04:17:31;100161.25;;;15.48;84.76
64872;BME280;51351;51.450;6.614;2023-08-06T04:19:57;100158.59;;;15.48;84.66
64872;BME280;51351;51.450;6.614;2023-08-06T04:22:24;100161.25;;;15.48;84.43
64872;BME280;51351;51.450;6.614;2023-08-06T04:24:51;100166.31;;;15.49;84.72
64872;BME280;51351;51.450;6.614;2023-08-06T04:27:19;100167.13;;;15.50;84.56
64872;BME280;51351;51.450;6.614;2023-08-06T04:29:47;100164.31;;;15.51;84.67
64872;BME280;51351;51.450;6.614;2023-08-06T04:32:13;100169.94;;;15.48;84.22
64872;BME280;51351;51.450;6.614;2023-08-06T04:34:44;100167.13;;;15.50;84.73
64872;BME280;51351;51.450;6.614;2023-08-06T04:37:10;100165.31;;;15.50;84.73
64872;BME280;51351;51.450;6.614;2023-08-06T04:39:37;100163.47;;;15.51;84.32
64872;BME280;51351;51.450;6.614;2023-08-06T04:42:04;100169.22;;;15.54;84.54
64872;BME280;51351;51.450;6.614;2023-08-06T04:44:30;100166.41;;;15.56;84.89
64872;BME280;51351;51.450;6.614;2023-08-06T04:46:56;100176.03;;;15.63;84.92
64872;BME280;51351;51.450;6.614;2023-08-06T04:49:22;100170.81;;;15.70;84.93
64872;BME280;51351;51.450;6.614;2023-08-06T04:51:48;100171.09;;;15.75;84.71
64872;BME280;51351;51.450;6.614;2023-08-06T04:54:14;100169.72;;;15.79;84.83
64872;BME280;51351;51.450;6.614;2023-08-06T04:56:40;100172.19;;;15.80;84.36
64872;BME280;51351;51.450;6.614;2023-08-06T04:59:06;100168.34;;;15.83;84.61
64872;BME280;51351;51.450;6.614;2023-08-06T05:01:32;100164.16;;;15.88;84.74
64872;BME280;51351;51.450;6.614;2023-08-06T05:03:58;100164.44;;;15.93;84.28
64872;BME280;51351;51.450;6.614;2023-08-06T05:06:24;100172.78;;;15.97;84.24
64872;BME280;51351;51.450;6.614;2023-08-06T05:08:50;100181.97;;;16.01;84.09
64872;BME280;51351;51.450;6.614;2023-08-06T05:11:16;100172.03;;;16.03;84.14
64872;BME280;51351;51.450;6.614;2023-08-06T05:13:42;100184.03;;;16.05;83.92
64872;BME280;51351;51.450;6.614;2023-08-06T05:16:08;100177.59;;;16.08;84.13
64872;BME280;51351;51.450;6.614;2023-08-06T05:18:34;100173.56;;;16.12;83.81
64872;BME280;51351;51.450;6.614;2023-08-06T05:21:00;100174.41;;;16.12;83.46
64872;BME280;51351;51.450;6.614;2023-08-06T05:23:26;100176.84;;;16.14;83.21
64872;BME280;51351;51.450;6.614;2023-08-06T05:25:52;100180.09;;;16.16;83.67
64872;BME280;51351;51.450;6.614;2023-08-06T05:28:18;100178.72;;;16.20;83.68
64872;BME280;51351;51.450;6.614;2023-08-06T05:30:44;100181.16;;;16.21;83.42
64872;BME280;51351;51.450;6.614;2023-08-06T05:33:10;100183.63;;;16.23;83.03
64872;BME280;51351;51.450;6.614;2023-08-06T05:35:36;100189.94;;;16.28;83.11
64872;BME280;51351;51.450;6.614;2023-08-06T05:38:02;100197.75;;;16.36;83.39
64872;BME280;51351;51.450;6.614;2023-08-06T05:40:28;100188.28;;;16.42;83.04
64872;BME280;51351;51.450;6.614;2023-08-06T05:42:54;100193.63;;;16.48;83.38
64872;BME280;51351;51.450;6.614;2023-08-06T05:45:21;100197.09;;;16.49;82.61
64872;BME280;51351;51.450;6.614;2023-08-06T05:47:50;100195.91;;;16.51;82.89
64872;BME280;51351;51.450;6.614;2023-08-06T05:50:16;100196.34;;;16.55;83.01
64872;BME280;51351;51.450;6.614;2023-08-06T05:52:42;100200.06;;;16.60;82.76
64872;BME280;51351;51.450;6.614;2023-08-06T05:55:08;100198.09;;;16.69;82.64
64872;BME280;51351;51.450;6.614;2023-08-06T05:57:34;100197.16;;;16.77;82.55
64872;BME280;51351;51.450;6.614;2023-08-06T06:00:01;100195.34;;;16.77;81.27
64872;BME280;51351;51.450;6.614;2023-08-06T06:02:27;100205.91;;;16.77;82.06
64872;BME280;51351;51.450;6.614;2023-08-06T06:04:53;100206.34;;;16.81;81.39
64872;BME280;51351;51.450;6.614;2023-08-06T06:07:19;100211.22;;;16.84;81.59
64872;BME280;51351;51.450;6.614;2023-08-06T06:09:45;100208.41;;;16.85;81.30
64872;BME280;51351;51.450;6.614;2023-08-06T06:12:12;100211.72;;;16.94;81.60
64872;BME280;51351;51.450;6.614;2023-08-06T06:14:38;100223.34;;;16.99;81.52
64872;BME280;51351;51.450;6.614;2023-08-06T06:17:04;100219.09;;;17.05;81.34
64872;BME280;51351;51.450;6.614;2023-08-06T06:19:30;100217.94;;;17.07;80.85
64872;BME280;51351;51.450;6.614;2023-08-06T06:21:56;100223.41;;;17.06;80.36
64872;BME280;51351;51.450;6.614;2023-08-06T06:24:23;100219.31;;;17.03;80.53
64872;BME280;51351;51.450;6.614;2023-08-06T06:26:49;100225.41;;;17.04;79.68
64872;BME280;51351;51.450;6.614;2023-08-06T06:29:15;100227.91;;;17.12;80.36
64872;BME280;51351;51.450;6.614;2023-08-06T06:31:41;100229.19;;;17.22;80.67
64872;BME280;51351;51.450;6.614;2023-08-06T06:34:07;100233.81;;;17.41;81.11
64872;BME280;51351;51.450;6.614;2023-08-06T06:36:33;100231.56;;;17.66;80.81
64872;BME280;51351;51.450;6.614;2023-08-06T06:38:59;100232.75;;;17.97;80.67
64872;BME280;51351;51.450;6.614;2023-08-06T06:41:25;100237.31;;;18.23;79.51
64872;BME280;51351;51.450;6.614;2023-08-06T06:43:52;100238.53;;;18.27;77.25
64872;BME280;51351;51.450;6.614;2023-08-06T06:46:18;100233.72;;;18.37;78.32
64872;BME280;51351;51.450;6.614;2023-08-06T06:48:44;100232.34;;;18.47;78.17
64872;BME280;51351;51.450;6.614;2023-08-06T06:51:10;100238.69;;;18.59;78.53
64872;BME280;51351;51.450;6.614;2023-08-06T06:53:36;100235.03;;;18.67;77.92
64872;BME280;51351;51.450;6.614;2023-08-06T06:56:03;100236.28;;;18.71;77.75
64872;BME280;51351;51.450;6.614;2023-08-06T06:58:33;100234.22;;;18.73;77.11
64872;BME280;51351;51.450;6.614;2023-08-06T07:00:59;100236.66;;;18.74;76.30
64872;BME280;51351;51.450;6.614;2023-08-06T07:03:25;100237.88;;;18.52;73.42
64872;BME280;51351;51.450;6.614;2023-08-06T07:05:51;100236.81;;;18.47;76.29
64872;BME280;51351;51.450;6.614;2023-08-06T07:08:17;100237.63;;;18.41;76.34
64872;BME280;51351;51.450;6.614;2023-08-06T07:10:43;100241.63;;;18.30;75.92
64872;BME280;51351;51.450;6.614;2023-08-06T07:13:09;100253.91;;;18.44;76.63
64872;BME280;51351;51.450;6.614;2023-08-06T07:15:35;100249.06;;;18.61;75.68
64872;BME280;51351;51.450;6.614;2023-08-06T07:18:01;100251.13;;;18.78;75.85
64872;BME280;51351;51.450;6.614;2023-08-06T07:20:27;100254.22;;;18.88;75.99
64872;BME280;51351;51.450;6.614;2023-08-06T07:22:58;100253.75;;;18.78;74.89
64872;BME280;51351;51.450;6.614;2023-08-06T07:25:24;100257.97;;;18.47;73.17
64872;BME280;51351;51.450;6.614;2023-08-06T07:27:50;100247.81;;;18.50;74.31
64872;BME280;51351;51.450;6.614;2023-08-06T07:30:16;100254.00;;;18.83;72.57
64872;BME280;51351;51.450;6.614;2023-08-06T07:32:44;100253.00;;;19.11;72.82
64872;BME280;51351;51.450;6.614;2023-08-06T07:35:10;100248.94;;;19.28;72.03
64872;BME280;51351;51.450;6.614;2023-08-06T07:37:38;100252.38;;;19.67;71.33
64872;BME280;51351;51.450;6.614;2023-08-06T07:40:05;100252.69;;;20.03;70.55
64872;BME280;51351;51.450;6.614;2023-08-06T07:42:31;100255.25;;;20.29;69.59
64872;BME280;51351;51.450;6.614;2023-08-06T07:44:58;100262.03;;;20.19;67.50
64872;BME280;51351;51.450;6.614;2023-08-06T07:47:24;100257.00;;;19.91;67.76
64872;BME280;51351;51.450;6.614;2023-08-06T07:49:50;100260.25;;;19.87;68.63
64872;BME280;51351;51.450;6.614;2023-08-06T07:52:16;100262.31;;;19.78;68.04
64872;BME280;51351;51.450;6.614;2023-08-06T07:54:42;100260.53;;;19.66;66.78
64872;BME280;51351;51.450;6.614;2023-08-06T07:57:08;100262.78;;;19.56;67.68
64872;BME280;51351;51.450;6.614;2023-08-06T07:59:35;100256.91;;;19.34;65.67
64872;BME280;51351;51.450;6.614;2023-08-06T08:02:01;100260.94;;;19.17;65.98
64872;BME280;51351;51.450;6.614;2023-08-06T08:04:27;100255.44;;;18.99;66.14
64872;BME280;51351;51.450;6.614;2023-08-06T08:06:53;100257.28;;;19.38;66.19
64872;BME280;51351;51.450;6.614;2023-08-06T08:09:19;100268.22;;;19.93;65.57
64872;BME280;51351;51.450;6.614;2023-08-06T08:11:45;100261.41;;;20.23;63.14
64872;BME280;51351;51.450;6.614;2023-08-06T08:14:12;100261.19;;;20.18;62.90
64872;BME280;51351;51.450;6.614;2023-08-06T08:16:38;100260.22;;;20.06;63.37
64872;BME280;51351;51.450;6.614;2023-08-06T08:19:04;100262.88;;;20.06;64.10
64872;BME280;51351;51.450;6.614;2023-08-06T08:21:30;100272.94;;;19.85;63.83
64872;BME280;51351;51.450;6.614;2023-08-06T08:23:58;100264.97;;;19.85;64.08
64872;BME280;51351;51.450;6.614;2023-08-06T08:26:24;100266.44;;;19.55;63.45
64872;BME280;51351;51.450;6.614;2023-08-06T08:28:50;100270.72;;;19.49;64.59
64872;BME280;51351;51.450;6.614;2023-08-06T08:31:16;100277.47;;;19.65;64.40
64872;BME280;51351;51.450;6.614;2023-08-06T08:33:42;100272.50;;;19.81;64.58
64872;BME280;51351;51.450;6.614;2023-08-06T08:36:08;100273.09;;;19.90;63.97
64872;BME280;51351;51.450;6.614;2023-08-06T08:38:35;100277.06;;;20.31;63.13
64872;BME280;51351;51.450;6.614;2023-08-06T08:41:01;100277.56;;;20.59;63.36
64872;BME280;51351;51.450;6.614;2023-08-06T08:43:28;100275.75;;;20.84;63.54
64872;BME280;51351;51.450;6.614;2023-08-06T08:45:56;100274.28;;;20.88;61.78
64872;BME280;51351;51.450;6.614;2023-08-06T08:48:26;100278.03;;;20.81;62.30
64872;BME280;51351;51.450;6.614;2023-08-06T08:50:53;100277.97;;;20.56;62.15
64872;BME280;51351;51.450;6.614;2023-08-06T08:53:21;100277.06;;;20.31;62.40
64872;BME280;51351;51.450;6.614;2023-08-06T08:55:49;100277.84;;;20.38;62.61
64872;BME280;51351;51.450;6.614;2023-08-06T08:58:15;100279.56;;;20.26;62.71
64872;BME280;51351;51.450;6.614;2023-08-06T09:00:42;100279.00;;;20.05;63.04
64872;BME280;51351;51.450;6.614;2023-08-06T09:03:08;100280.66;;;19.93;63.17
64872;BME280;51351;51.450;6.614;2023-08-06T09:05:35;100287.97;;;19.97;63.43
64872;BME280;51351;51.450;6.614;2023-08-06T09:08:05;100285.59;;;19.70;63.73
64872;BME280;51351;51.450;6.614;2023-08-06T09:10:31;100287.22;;;19.58;64.40
64872;BME280;51351;51.450;6.614;2023-08-06T09:12:57;100293.56;;;19.57;63.74
64872;BME280;51351;51.450;6.614;2023-08-06T09:15:25;100296.03;;;19.39;64.30
64872;BME280;51351;51.450;6.614;2023-08-06T09:17:54;100295.00;;;19.27;64.73
64872;BME280;51351;51.450;6.614;2023-08-06T09:20:20;100297.19;;;19.23;64.28
64872;BME280;51351;51.450;6.614;2023-08-06T09:22:47;100304.50;;;19.15;64.89
64872;BME280;51351;51.450;6.614;2023-08-06T09:25:22;100302.69;;;19.09;64.95
64872;BME280;51351;51.450;6.614;2023-08-06T09:27:51;100299.19;;;19.01;65.72
64872;BME280;51351;51.450;6.614;2023-08-06T09:30:34;100302.84;;;18.87;67.39
64872;BME280;51351;51.450;6.614;2023-08-06T09:33:00;100319.72;;;18.80;67.36
64872;BME280;51351;51.450;6.614;2023-08-06T09:35:30;100309.09;;;18.60;67.59
64872;BME280;51351;51.450;6.614;2023-08-06T09:38:10;100313.97;;;18.57;68.71
64872;BME280;51351;51.450;6.614;2023-08-06T09:40:36;100315.56;;;18.51;68.60
64872;BME280;51351;51.450;6.614;2023-08-06T09:43:03;100312.13;;;18.51;69.27
64872;BME280;51351;51.450;6.614;2023-08-06T09:45:36;100314.13;;;18.42;70.41
64872;BME280;51351;51.450;6.614;2023-08-06T09:48:08;100321.16;;;18.35;71.51
64872;BME280;51351;51.450;6.614;2023-08-06T09:50:36;100318.91;;;18.26;71.50
64872;BME280;51351;51.450;6.614;2023-08-06T09:53:07;100319.53;;;18.28;72.64
64872;BME280;51351;51.450;6.614;2023-08-06T09:55:34;100326.28;;;18.37;72.59
64872;BME280;51351;51.450;6.614;2023-08-06T09:58:00;100324.81;;;18.34;72.03
64872;BME280;51351;51.450;6.614;2023-08-06T10:00:27;100325.31;;;18.44;71.87
64872;BME280;51351;51.450;6.614;2023-08-06T10:02:54;100325.56;;;18.56;71.83
64872;BME280;51351;51.450;6.614;2023-08-06T10:05:25;100326.25;;;18.71;71.95
64872;BME280;51351;51.450;6.614;2023-08-06T10:07:52;100329.72;;;18.84;71.45
64872;BME280;51351;51.450;6.614;2023-08-06T10:10:19;100326.47;;;18.89;71.40
64872;BME280;51351;51.450;6.614;2023-08-06T10:12:52;100330.34;;;18.86;69.88
64872;BME280;51351;51.450;6.614;2023-08-06T10:15:25;100334.41;;;18.89;70.14
64872;BME280;51351;51.450;6.614;2023-08-06T10:17:54;100342.94;;;18.78;70.33
64872;BME280;51351;51.450;6.614;2023-08-06T10:20:21;100353.56;;;18.37;71.13
64872;BME280;51351;51.450;6.614;2023-08-06T10:23:05;100348.00;;;17.92;72.00
64872;BME280;51351;51.450;6.614;2023-08-06T10:25:34;100351.00;;;17.61;74.12
64872;BME280;51351;51.450;6.614;2023-08-06T10:28:10;100356.19;;;17.48;73.96
64872;BME280;51351;51.450;6.614;2023-08-06T10:30:44;100364.28;;;17.26;75.04
64872;BME280;51351;51.450;6.614;2023-08-06T10:33:10;100362.56;;;16.97;75.74
64872;BME280;51351;51.450;6.614;2023-08-06T10:35:37;100365.78;;;16.93;76.60
64872;BME280;51351;51.450;6.614;2023-08-06T10:38:20;100380.00;;;16.77;76.46
64872;BME280;51351;51.450;6.614;2023-08-06T10:43:28;100386.03;;;16.56;77.11
64872;BME280;51351;51.450;6.614;2023-08-06T10:45:55;100403.63;;;16.27;77.34
64872;BME280;51351;51.450;6.614;2023-08-06T10:48:43;100397.72;;;16.10;78.87
64872;BME280;51351;51.450;6.614;2023-08-06T10:51:12;100391.81;;;16.08;78.93
64872;BME280;51351;51.450;6.614;2023-08-06T10:53:44;100399.81;;;16.00;79.36
64872;BME280;51351;51.450;6.614;2023-08-06T10:56:15;100409.53;;;16.00;79.23
64872;BME280;51351;51.450;6.614;2023-08-06T10:58:42;100412.88;;;15.79;79.82
64872;BME280;51351;51.450;6.614;2023-08-06T11:01:09;100417.84;;;15.52;82.59
64872;BME280;51351;51.450;6.614;2023-08-06T11:03:36;100413.25;;;15.23;83.84
64872;BME280;51351;51.450;6.614;2023-08-06T11:06:03;100416.44;;;15.11;84.65
64872;BME280;51351;51.450;6.614;2023-08-06T11:08:32;100421.28;;;14.99;85.33
64872;BME280;51351;51.450;6.614;2023-08-06T11:11:12;100415.75;;;14.86;86.47
64872;BME280;51351;51.450;6.614;2023-08-06T11:13:42;100414.81;;;14.79;85.64
64872;BME280;51351;51.450;6.614;2023-08-06T11:16:09;100422.34;;;14.82;86.28
64872;BME280;51351;51.450;6.614;2023-08-06T11:18:35;100425.50;;;14.78;87.09
64872;BME280;51351;51.450;6.614;2023-08-06T11:21:02;100438.31;;;14.81;86.63
64872;BME280;51351;51.450;6.614;2023-08-06T11:23:28;100431.59;;;14.78;87.52
64872;BME280;51351;51.450;6.614;2023-08-06T11:25:58;100441.09;;;14.79;87.21
64872;BME280;51351;51.450;6.614;2023-08-06T11:28:24;100435.84;;;14.79;87.11
64872;BME280;51351;51.450;6.614;2023-08-06T11:30:51;100427.28;;;14.85;86.61
64872;BME280;51351;51.450;6.614;2023-08-06T11:33:21;100433.03;;;14.89;86.69
64872;BME280;51351;51.450;6.614;2023-08-06T11:35:49;100440.22;;;14.95;86.57
64872;BME280;51351;51.450;6.614;2023-08-06T11:38:15;100445.94;;;15.06;86.21
64872;BME280;51351;51.450;6.614;2023-08-06T11:40:49;100447.72;;;15.06;85.79
64872;BME280;51351;51.450;6.614;2023-08-06T11:43:18;100456.63;;;15.05;85.67
64872;BME280;51351;51.450;6.614;2023-08-06T11:45:44;100460.06;;;15.05;85.13
64872;BME280;51351;51.450;6.614;2023-08-06T11:48:10;100464.47;;;15.13;84.82
64872;BME280;51351;51.450;6.614;2023-08-06T11:50:37;100463.63;;;15.12;85.24
64872;BME280;51351;51.450;6.614;2023-08-06T11:53:06;100457.00;;;15.24;85.15
64872;BME280;51351;51.450;6.614;2023-08-06T11:55:32;100465.81;;;15.31;85.15
64872;BME280;51351;51.450;6.614;2023-08-06T11:58:02;100473.06;;;15.37;85.08
64872;BME280;51351;51.450;6.614;2023-08-06T12:00:28;100470.88;;;15.41;84.98
64872;BME280;51351;51.450;6.614;2023-08-06T12:02:56;100474.50;;;15.48;84.13
64872;BME280;51351;51.450;6.614;2023-08-06T12:05:23;100469.50;;;15.53;84.98
64872;BME280;51351;51.450;6.614;2023-08-06T12:07:52;100482.81;;;15.59;84.50
64872;BME280;51351;51.450;6.614;2023-08-06T12:10:19;100494.78;;;15.62;84.18
64872;BME280;51351;51.450;6.614;2023-08-06T12:12:46;100484.59;;;15.59;84.09
64872;BME280;51351;51.450;6.614;2023-08-06T12:15:12;100486.91;;;15.62;84.41
64872;BME280;51351;51.450;6.614;2023-08-06T12:17:38;100489.63;;;15.68;83.95
64872;BME280;51351;51.450;6.614;2023-08-06T12:20:06;100492.31;;;15.83;83.91
64872;BME280;51351;51.450;6.614;2023-08-06T12:22:36;100487.81;;;15.91;84.15
64872;BME280;51351;51.450;6.614;2023-08-06T12:25:04;100487.59;;;16.01;84.01
64872;BME280;51351;51.450;6.614;2023-08-06T12:27:34;100482.19;;;15.94;83.39
64872;BME280;51351;51.450;6.614;2023-08-06T12:30:00;100482.31;;;16.01;83.96
64872;BME280;51351;51.450;6.614;2023-08-06T12:32:26;100485.88;;;16.08;83.49
64872;BME280;51351;51.450;6.614;2023-08-06T12:34:52;100476.44;;;16.13;83.36
64872;BME280;51351;51.450;6.614;2023-08-06T12:37:18;100480.06;;;16.12;83.18
64872;BME280;51351;51.450;6.614;2023-08-06T12:39:44;100489.13;;;16.10;83.39
64872;BME280;51351;51.450;6.614;2023-08-06T12:42:10;100483.94;;;16.02;83.54
64872;BME280;51351;51.450;6.614;2023-08-06T12:44:36;100492.56;;;15.96;83.94
64872;BME280;51351;51.450;6.614;2023-08-06T12:47:02;100502.22;;;15.81;83.90
64872;BME280;51351;51.450;6.614;2023-08-06T12:49:28;100497.00;;;15.73;84.13
64872;BME280;51351;51.450;6.614;2023-08-06T12:51:55;100503.38;;;15.78;84.55
64872;BME280;51351;51.450;6.614;2023-08-06T12:54:22;100507.59;;;15.87;84.54
64872;BME280;51351;51.450;6.614;2023-08-06T12:56:48;100508.13;;;15.83;84.03
64872;BME280;51351;51.450;6.614;2023-08-06T12:59:15;100519.19;;;15.78;84.52
64872;BME280;51351;51.450;6.614;2023-08-06T13:01:42;100513.63;;;15.96;84.09